createdAt,value
2023-03-27T17:04:24.217Z,98263.47
2023-03-27T17:06:52.739Z,98280.09
2023-03-27T17:09:22.806Z,98262.38
2023-03-27T17:11:51.257Z,98281.91
2023-03-27T17:14:19.576Z,98270.94
2023-03-27T17:16:48.926Z,98275.13
2023-03-27T17:19:17.844Z,98240.31
2023-03-27T17:21:46.155Z,98267.09
2023-03-27T17:24:14.953Z,98275.41
2023-03-27T17:26:43.489Z,98284.28
2023-03-27T17:29:11.677Z,98289.78
2023-03-27T17:31:39.701Z,98246.78
2023-03-27T17:34:08.135Z,98285.22
2023-03-27T17:36:43.340Z,98212.72
2023-03-27T17:39:16.018Z,98248.34
2023-03-27T17:41:44.209Z,98247.69
2023-03-27T17:44:13.035Z,98244.91
2023-03-27T17:46:43.292Z,98223.53
2023-03-27T17:49:11.645Z,98316.72
2023-03-27T17:51:39.587Z,98230.91
2023-03-27T17:54:08.039Z,98283.72
2023-03-27T17:56:37.050Z,98316.88
2023-03-27T17:59:06.168Z,98327.94
2023-03-27T18:01:34.527Z,98332.78
2023-03-27T18:04:03.961Z,98351.59
2023-03-27T18:06:32.802Z,98319.72
2023-03-27T18:09:01.364Z,98351.66
2023-03-27T18:11:29.920Z,98300.28
2023-03-27T18:13:58.233Z,98375.00
2023-03-27T18:16:27.169Z,98350.41
2023-03-27T18:18:57.953Z,98384.28
2023-03-27T18:21:26.170Z,98398.69
2023-03-27T18:23:56.725Z,98385.19
2023-03-27T18:26:25.055Z,98411.03
2023-03-27T18:28:53.334Z,98402.44
2023-03-27T18:31:21.898Z,98424.72
2023-03-27T18:33:50.471Z,98417.91
2023-03-27T18:36:19.165Z,98400.78
2023-03-27T18:38:49.592Z,98402.81
2023-03-27T18:41:17.891Z,98343.53
2023-03-27T18:43:46.150Z,98435.56
2023-03-27T18:46:17.340Z,98445.94
2023-03-27T18:48:49.093Z,98438.69
2023-03-27T18:51:18.838Z,98435.97
2023-03-27T18:53:47.124Z,98446.94
2023-03-27T18:56:15.281Z,98357.59
2023-03-27T18:58:44.171Z,98367.63
2023-03-27T19:01:12.911Z,98408.28
2023-03-27T19:03:42.103Z,98471.72
2023-03-27T19:06:12.470Z,98443.38
2023-03-27T19:08:43.647Z,98468.66
2023-03-27T19:11:13.800Z,98492.63
2023-03-27T19:14:14.465Z,98503.97
2023-03-27T19:16:55.759Z,98503.72
2023-03-27T19:19:35.963Z,98481.75
2023-03-27T19:22:16.459Z,98499.19
2023-03-27T19:24:58.631Z,98482.34
2023-03-27T19:27:38.367Z,98520.16
2023-03-27T19:30:11.526Z,98516.66
2023-03-27T19:32:41.005Z,98425.13
2023-03-27T19:35:09.925Z,98533.00
2023-03-27T19:37:38.605Z,98524.78
2023-03-27T19:40:08.155Z,98542.88
2023-03-27T19:42:38.544Z,98493.81
2023-03-27T19:45:07.584Z,98539.28
2023-03-27T19:47:36.035Z,98529.84
2023-03-27T19:50:07.532Z,98536.38
2023-03-27T19:53:05.437Z,98502.41
2023-03-27T19:55:38.139Z,98534.84
2023-03-27T19:58:06.712Z,98520.22
2023-03-27T20:00:38.656Z,98542.72
2023-03-27T20:03:10.796Z,98487.09
2023-03-27T20:05:41.520Z,98522.22
2023-03-27T20:08:10.314Z,98540.56
2023-03-27T20:10:39.389Z,98545.19
2023-03-27T20:13:07.783Z,98547.59
2023-03-27T20:15:38.843Z,98555.34
2023-03-27T20:18:07.573Z,98513.81
2023-03-27T20:20:39.432Z,98555.06
2023-03-27T20:23:07.980Z,98537.16
2023-03-27T20:25:36.932Z,98546.47
2023-03-27T20:28:06.546Z,98398.00
2023-03-27T20:30:40.811Z,98502.50
2023-03-27T20:33:09.652Z,98510.13
2023-03-27T20:35:41.357Z,98525.19
2023-03-27T20:38:11.158Z,98556.34
2023-03-27T20:43:19.741Z,98543.09
2023-03-27T20:45:52.228Z,98511.50
2023-03-27T20:48:22.257Z,98559.03
2023-03-27T20:50:52.854Z,98554.03
2023-03-27T20:53:26.440Z,98559.22
2023-03-27T20:56:03.816Z,98554.47
2023-03-27T20:58:41.442Z,98559.09
2023-03-27T21:01:14.231Z,98526.63
2023-03-27T21:03:46.347Z,98521.69
2023-03-27T21:06:19.217Z,98565.16
2023-03-27T21:08:48.444Z,98564.88
2023-03-27T21:11:18.255Z,98561.34
2023-03-27T21:13:47.790Z,98564.03
2023-03-27T21:16:16.315Z,98573.59
2023-03-27T21:18:44.548Z,98554.88
2023-03-27T21:21:13.244Z,98476.44
2023-03-27T21:23:41.798Z,98572.34
2023-03-27T21:26:09.969Z,98545.53
2023-03-27T21:28:38.986Z,98575.94
2023-03-27T21:31:11.501Z,98569.22
2023-03-27T21:33:40.063Z,98582.00
2023-03-27T21:36:10.005Z,98594.28
2023-03-27T21:38:39.042Z,98592.69
2023-03-27T21:41:07.977Z,98590.91
2023-03-27T21:43:36.042Z,98532.34
2023-03-27T21:46:05.094Z,98584.44
2023-03-27T21:48:33.720Z,98595.31
2023-03-27T21:51:04.755Z,98533.25
2023-03-27T21:53:33.087Z,98597.84
2023-03-27T21:56:01.524Z,98601.59
2023-03-27T21:58:29.923Z,98603.94
2023-03-27T22:00:59.432Z,98601.31
2023-03-27T22:03:30.241Z,98594.72
2023-03-27T22:06:11.758Z,98544.66
2023-03-27T22:08:43.028Z,98583.84
2023-03-27T22:11:12.823Z,98608.38
2023-03-27T22:13:43.536Z,98559.22
2023-03-27T22:16:17.868Z,98597.63
2023-03-27T22:18:46.825Z,98557.53
2023-03-27T22:21:28.568Z,98563.19
2023-03-27T22:23:59.920Z,98507.31
2023-03-27T22:26:33.842Z,98624.50
2023-03-27T22:29:02.305Z,98640.94
2023-03-27T22:31:30.715Z,98649.94
2023-03-27T22:33:59.503Z,98631.31
2023-03-27T22:36:27.733Z,98643.16
2023-03-27T22:38:55.818Z,98649.63
2023-03-27T22:41:25.619Z,98648.88
2023-03-27T22:43:54.037Z,98662.81
2023-03-27T22:46:24.137Z,98612.53
2023-03-27T22:48:58.135Z,98647.63
2023-03-27T22:51:30.512Z,98616.59
2023-03-27T22:53:59.240Z,98667.69
2023-03-27T22:56:27.370Z,98661.00
2023-03-27T22:58:55.763Z,98654.84
2023-03-27T23:01:23.981Z,98663.53
2023-03-27T23:03:52.379Z,98671.16
2023-03-27T23:06:23.106Z,98632.63
2023-03-27T23:08:52.168Z,98668.75
2023-03-27T23:11:20.780Z,98662.16
2023-03-27T23:13:49.403Z,98677.00
2023-03-27T23:16:18.052Z,98684.50
2023-03-27T23:18:46.053Z,98649.84
2023-03-27T23:21:16.899Z,98692.13
2023-03-27T23:23:46.038Z,98682.91
2023-03-27T23:26:14.626Z,98708.09
2023-03-27T23:28:43.325Z,98707.34
2023-03-27T23:31:15.923Z,98700.69
2023-03-27T23:33:48.137Z,98661.22
2023-03-27T23:36:23.430Z,98706.50
2023-03-27T23:38:53.401Z,98684.34
2023-03-27T23:41:22.592Z,98674.13
2023-03-27T23:43:51.260Z,98717.19
2023-03-27T23:46:19.836Z,98690.72
2023-03-27T23:48:48.354Z,98716.84
2023-03-27T23:51:17.342Z,98682.47
2023-03-27T23:53:48.227Z,98624.09
2023-03-27T23:56:17.031Z,98682.34
2023-03-27T23:58:46.226Z,98671.91
